Time;durP1;ratioP1;P1;durP2;ratioP2;P2;SDS_P1;SDS_P2;PMS_P1;PMS_P2;Temp;Humidity;BMP_temperature;BMP_pressure;BME280_temperature;BME280_humidity;BME280_pressure;Samples;Min_cycle;Max_cycle;Signal;HPM_P1;HPM_P2
2022/08/01 00:01:52;;;;;;;11.30;7.22;;;18.90;99.90;;;;;;5061836;28;20119;-68
2022/08/01 00:04:18;;;;;;;10.68;7.40;;;18.90;99.90;;;;;;5074912;28;20134;-67
2022/08/01 00:06:43;;;;;;;9.88;7.03;;;18.90;99.90;;;;;;5058331;28;20044;-68
2022/08/01 00:09:09;;;;;;;11.77;7.22;;;18.80;99.90;;;;;;5058103;28;20174;-68
2022/08/01 00:11:35;;;;;;;9.75;7.00;;;18.80;99.90;;;;;;5044034;28;20119;-68
2022/08/01 00:14:00;;;;;;;10.52;6.97;;;18.80;99.90;;;;;;5054466;28;20110;-68
2022/08/01 00:16:26;;;;;;;10.48;6.75;;;18.80;99.90;;;;;;5057899;28;20045;-68
2022/08/01 00:18:52;;;;;;;9.95;6.90;;;18.80;99.90;;;;;;5073786;28;20043;-68
2022/08/01 00:21:18;;;;;;;10.48;7.50;;;18.80;99.90;;;;;;5040207;28;20035;-68
2022/08/01 00:23:45;;;;;;;10.38;7.32;;;18.90;99.90;;;;;;5072102;28;20397;-67
2022/08/01 00:26:12;;;;;;;9.88;6.38;;;18.80;99.90;;;;;;5057695;28;20441;-68
2022/08/01 00:28:37;;;;;;;10.23;6.68;;;18.80;99.90;;;;;;5070563;28;20063;-68
2022/08/01 00:31:03;;;;;;;11.43;7.07;;;18.80;99.90;;;;;;5050249;28;20041;-68
2022/08/01 00:33:28;;;;;;;10.18;6.82;;;18.80;99.90;;;;;;5073971;28;20072;-67
2022/08/01 00:35:54;;;;;;;10.13;6.40;;;18.80;99.90;;;;;;5056642;28;20036;-68
2022/08/01 00:38:20;;;;;;;10.20;7.20;;;18.80;99.90;;;;;;5052464;28;20047;-68
2022/08/01 00:40:46;;;;;;;9.80;6.05;;;18.80;99.90;;;;;;5054337;28;20424;-67
2022/08/01 00:43:11;;;;;;;9.50;6.32;;;18.90;99.90;;;;;;5074359;28;20037;-68
2022/08/01 00:45:37;;;;;;;10.13;6.35;;;18.80;99.90;;;;;;5057431;28;20029;-67
2022/08/01 00:48:03;;;;;;;9.35;6.18;;;18.80;99.90;;;;;;5056212;28;20063;-68
2022/08/01 00:50:28;;;;;;;9.80;6.05;;;18.80;99.90;;;;;;5040794;28;20094;-67
2022/08/01 00:52:55;;;;;;;12.93;6.82;;;18.80;99.90;;;;;;5069488;28;20037;-67
2022/08/01 00:55:21;;;;;;;10.10;6.05;;;18.70;99.90;;;;;;5041730;28;20044;-67
2022/08/01 00:57:48;;;;;;;11.73;6.78;;;18.70;99.90;;;;;;5037194;28;20397;-66
2022/08/01 01:00:14;;;;;;;9.20;6.20;;;18.70;99.90;;;;;;5052856;28;20118;-67
2022/08/01 01:02:39;;;;;;;9.73;6.30;;;18.70;99.90;;;;;;5037406;28;20401;-67
2022/08/01 01:05:06;;;;;;;9.20;6.18;;;18.80;99.90;;;;;;5037150;28;20033;-67
2022/08/01 01:08:04;;;;;;;9.90;6.13;;;18.80;99.90;;;;;;5065943;28;20045;-67
2022/08/01 01:10:32;;;;;;;9.52;5.63;;;18.70;99.90;;;;;;5071238;28;20052;-67
2022/08/01 01:13:04;;;;;;;8.38;5.45;;;18.70;99.90;;;;;;5073351;28;20509;-67
2022/08/01 01:15:49;;;;;;;9.23;5.93;;;18.60;99.90;;;;;;5057164;28;20515;-67
2022/08/01 01:18:23;;;;;;;9.85;5.03;;;18.60;99.90;;;;;;5072342;28;20405;-67
2022/08/01 01:21:17;;;;;;;7.70;4.95;;;18.60;99.90;;;;;;5036112;28;20048;-67
2022/08/01 01:23:49;;;;;;;10.05;5.32;;;18.60;99.90;;;;;;5050009;28;20068;-68
2022/08/01 01:26:29;;;;;;;8.18;4.43;;;18.60;99.90;;;;;;5047934;28;20086;-68
2022/08/01 01:29:36;;;;;;;8.48;4.70;;;18.60;99.90;;;;;;5045203;28;20066;-67
2022/08/01 01:32:12;;;;;;;6.85;4.22;;;18.50;99.90;;;;;;5009530;28;20045;-67
2022/08/01 01:34:42;;;;;;;7.45;4.30;;;18.60;99.90;;;;;;5025417;28;20084;-67
2022/08/01 01:37:11;;;;;;;7.03;3.83;;;18.50;99.90;;;;;;5032535;28;20815;-67
2022/08/01 01:39:40;;;;;;;6.45;3.90;;;18.40;99.90;;;;;;5045630;28;20126;-67
2022/08/01 01:42:07;;;;;;;11.32;4.25;;;18.50;99.90;;;;;;5030415;28;20493;-67
2022/08/01 01:44:35;;;;;;;7.45;3.97;;;18.50;99.90;;;;;;5019525;28;20122;-67
2022/08/01 01:47:01;;;;;;;6.65;3.70;;;18.50;99.90;;;;;;5017365;28;20037;-67
2022/08/01 01:49:28;;;;;;;6.47;3.25;;;18.50;99.90;;;;;;5030096;28;20504;-68
2022/08/01 01:51:56;;;;;;;7.38;4.22;;;18.50;99.90;;;;;;5031401;28;20812;-68
2022/08/01 01:54:25;;;;;;;6.47;3.10;;;18.50;99.90;;;;;;5040624;28;20485;-67
2022/08/01 01:56:52;;;;;;;5.28;3.00;;;18.50;99.90;;;;;;5036047;28;20448;-67
2022/08/01 01:59:25;;;;;;;8.32;3.72;;;18.50;99.90;;;;;;5036193;28;20037;-68
2022/08/01 02:01:55;;;;;;;7.43;3.47;;;18.50;99.90;;;;;;5058235;28;20045;-68
2022/08/01 02:04:22;;;;;;;6.95;3.35;;;18.50;99.90;;;;;;5030002;28;20061;-68
2022/08/01 02:06:50;;;;;;;5.47;2.78;;;18.50;99.90;;;;;;5030681;28;20453;-67
2022/08/01 02:09:19;;;;;;;9.23;3.25;;;18.50;99.90;;;;;;5036705;28;20037;-68
2022/08/01 02:11:50;;;;;;;5.38;3.00;;;18.50;99.90;;;;;;5042721;28;20041;-67
2022/08/01 02:14:18;;;;;;;7.22;2.55;;;18.50;99.90;;;;;;5051367;28;20053;-67
2022/08/01 02:16:47;;;;;;;7.22;2.50;;;18.40;99.90;;;;;;5052197;28;20048;-67
2022/08/01 02:19:14;;;;;;;6.60;2.10;;;18.40;99.90;;;;;;5050133;28;20486;-68
2022/08/01 02:21:51;;;;;;;5.90;1.92;;;18.40;99.90;;;;;;5035730;28;20078;-67
2022/08/01 02:24:37;;;;;;;7.38;2.03;;;18.30;99.90;;;;;;5034583;28;20040;-67
2022/08/01 02:27:08;;;;;;;8.40;2.08;;;18.20;99.90;;;;;;5052736;28;20052;-67
2022/08/01 02:29:55;;;;;;;5.60;2.10;;;18.20;99.90;;;;;;5049426;28;20033;-67
2022/08/01 02:32:26;;;;;;;7.15;1.98;;;18.20;99.90;;;;;;5035553;28;20044;-67
2022/08/01 02:34:55;;;;;;;3.67;1.75;;;18.10;99.90;;;;;;5051168;28;20051;-67
2022/08/01 02:37:23;;;;;;;7.22;1.92;;;18.10;99.90;;;;;;5035236;28;20052;-67
2022/08/01 02:39:53;;;;;;;4.95;1.90;;;18.10;99.90;;;;;;5050004;28;20037;-67
2022/08/01 02:42:20;;;;;;;7.75;1.88;;;18.10;99.90;;;;;;5052318;28;20053;-67
2022/08/01 02:44:47;;;;;;;5.15;1.77;;;18.20;99.90;;;;;;5028119;28;20396;-67
2022/08/01 02:47:16;;;;;;;3.63;1.73;;;18.10;99.90;;;;;;5034406;28;20505;-68
2022/08/01 02:49:47;;;;;;;9.75;2.47;;;18.10;99.90;;;;;;5049577;28;20413;-67
2022/08/01 02:52:16;;;;;;;5.63;2.10;;;18.10;99.90;;;;;;5042406;28;20040;-67
2022/08/01 02:54:45;;;;;;;5.18;1.85;;;18.10;99.90;;;;;;5049921;28;20124;-68
2022/08/01 02:57:12;;;;;;;6.13;2.10;;;18.10;99.90;;;;;;5035270;28;20049;-67
2022/08/01 02:59:40;;;;;;;7.55;2.00;;;18.10;99.90;;;;;;5038611;28;20033;-67
2022/08/01 03:02:08;;;;;;;5.50;1.77;;;18.10;99.90;;;;;;5041484;28;20059;-67
2022/08/01 03:04:36;;;;;;;5.78;2.00;;;18.00;99.90;;;;;;5020974;28;20041;-67
2022/08/01 03:07:06;;;;;;;6.57;2.25;;;18.00;99.90;;;;;;5013783;28;20045;-67
2022/08/01 03:09:37;;;;;;;5.63;1.77;;;18.00;99.90;;;;;;5030615;28;20122;-67
2022/08/01 03:12:06;;;;;;;6.63;1.98;;;18.00;99.90;;;;;;5018195;28;20045;-66
2022/08/01 03:14:35;;;;;;;4.70;1.90;;;18.00;99.90;;;;;;5045737;28;20090;-67
2022/08/01 03:17:03;;;;;;;6.07;1.75;;;17.90;99.90;;;;;;5034812;28;20546;-67
2022/08/01 03:19:30;;;;;;;6.78;2.03;;;17.90;99.90;;;;;;5052160;28;20443;-67
2022/08/01 03:21:58;;;;;;;5.30;1.92;;;17.90;99.90;;;;;;5046714;28;20401;-66
2022/08/01 03:24:25;;;;;;;5.78;1.70;;;18.00;99.90;;;;;;5048346;28;20034;-67
2022/08/01 03:26:52;;;;;;;4.05;1.80;;;18.00;99.90;;;;;;5031686;28;20046;-67
2022/08/01 03:29:24;;;;;;;7.18;1.90;;;17.90;99.90;;;;;;5035017;28;20541;-67
2022/08/01 03:31:51;;;;;;;6.28;1.88;;;17.90;99.90;;;;;;5029111;28;20056;-66
2022/08/01 03:34:17;;;;;;;5.43;1.70;;;17.90;99.90;;;;;;5030057;28;20076;-66
2022/08/01 03:36:48;;;;;;;9.07;2.15;;;17.90;99.90;;;;;;5046986;28;20045;-67
2022/08/01 03:39:15;;;;;;;5.85;1.95;;;17.90;99.90;;;;;;5033258;28;20227;-67
2022/08/01 03:41:46;;;;;;;8.50;1.90;;;17.90;99.90;;;;;;5026730;28;20045;-67
2022/08/01 03:44:18;;;;;;;9.13;2.13;;;17.90;99.90;;;;;;5033924;28;20041;-67
2022/08/01 03:46:47;;;;;;;6.45;2.47;;;17.90;99.90;;;;;;5016849;28;20046;-67
2022/08/01 03:49:26;;;;;;;8.23;2.40;;;17.90;99.90;;;;;;5045712;28;20123;-67
2022/08/01 03:51:53;;;;;;;12.45;2.72;;;17.90;99.90;;;;;;5023046;28;20045;-66
2022/08/01 03:54:27;;;;;;;8.43;2.55;;;17.90;99.90;;;;;;5031726;28;20037;-67
2022/08/01 03:56:54;;;;;;;7.72;2.30;;;17.80;99.90;;;;;;5047549;28;20397;-67
2022/08/01 03:59:21;;;;;;;7.90;2.38;;;17.80;99.90;;;;;;5022447;28;20091;-67
2022/08/01 04:01:48;;;;;;;11.13;3.03;;;17.80;99.90;;;;;;5039598;28;21688;-67
2022/08/01 04:04:14;;;;;;;8.68;2.75;;;17.80;99.90;;;;;;5016592;28;20090;-67
2022/08/01 04:06:40;;;;;;;6.80;2.40;;;17.70;99.90;;;;;;5024447;28;20160;-67
2022/08/01 04:09:10;;;;;;;8.32;2.78;;;17.70;99.90;;;;;;5034749;28;20094;-67
2022/08/01 04:11:36;;;;;;;12.10;2.90;;;17.70;99.90;;;;;;5031354;28;20139;-67
2022/08/01 04:14:01;;;;;;;7.80;2.55;;;17.70;99.90;;;;;;5048670;28;20057;-66
2022/08/01 04:16:27;;;;;;;12.07;2.80;;;17.60;99.90;;;;;;5031710;28;20049;-67
2022/08/01 04:18:52;;;;;;;9.38;3.13;;;17.60;99.90;;;;;;5032406;28;20187;-67
2022/08/01 04:21:23;;;;;;;6.90;2.97;;;17.60;99.90;;;;;;5032405;28;20044;-67
2022/08/01 04:23:51;;;;;;;8.10;2.63;;;17.60;99.90;;;;;;5040735;28;20045;-67
2022/08/01 04:26:19;;;;;;;8.57;2.90;;;17.60;99.90;;;;;;5025740;28;20041;-67
2022/08/01 04:28:47;;;;;;;7.85;2.45;;;17.70;99.90;;;;;;5049608;28;20041;-67
2022/08/01 04:31:17;;;;;;;9.73;2.92;;;17.60;99.90;;;;;;5040307;28;20431;-67
2022/08/01 04:33:47;;;;;;;11.18;2.90;;;17.70;99.90;;;;;;5021404;28;20087;-67
2022/08/01 04:36:15;;;;;;;8.20;2.50;;;17.60;99.90;;;;;;5032135;28;20045;-67
2022/08/01 04:38:45;;;;;;;7.60;2.70;;;17.60;99.90;;;;;;5036783;28;20041;-67
2022/08/01 04:41:13;;;;;;;8.90;2.80;;;17.60;99.90;;;;;;5033008;28;20045;-67
2022/08/01 04:43:39;;;;;;;7.82;2.78;;;17.50;99.90;;;;;;5047931;28;20123;-67
2022/08/01 04:46:07;;;;;;;8.95;2.78;;;17.50;99.90;;;;;;5031531;28;20086;-67
2022/08/01 04:48:36;;;;;;;10.80;2.78;;;17.50;99.90;;;;;;5035906;28;20385;-67
2022/08/01 04:51:01;;;;;;;12.18;2.88;;;17.50;99.90;;;;;;5031933;28;20665;-66
2022/08/01 04:53:27;;;;;;;10.27;2.88;;;17.50;99.90;;;;;;5035324;28;20045;-66
2022/08/01 04:55:53;;;;;;;7.68;2.60;;;17.50;99.90;;;;;;5043112;28;20242;-67
2022/08/01 04:58:19;;;;;;;9.93;2.88;;;17.50;99.90;;;;;;5030901;28;20048;-66
2022/08/01 05:00:47;;;;;;;8.30;2.85;;;17.50;99.90;;;;;;5038043;28;20401;-67
2022/08/01 05:03:12;;;;;;;12.98;3.03;;;17.30;99.90;;;;;;5035055;28;20040;-67
2022/08/01 05:05:38;;;;;;;16.73;3.28;;;17.40;99.90;;;;;;5030555;28;20469;-67
2022/08/01 05:08:05;;;;;;;11.18;3.10;;;17.30;99.90;;;;;;5030688;28;20128;-67
2022/08/01 05:10:31;;;;;;;10.43;2.83;;;17.30;99.90;;;;;;5048069;28;20045;-67
2022/08/01 05:12:57;;;;;;;8.80;3.10;;;17.30;99.90;;;;;;5014859;28;20052;-67
2022/08/01 05:15:23;;;;;;;12.48;2.67;;;17.30;99.90;;;;;;5035914;28;20574;-66
2022/08/01 05:17:48;;;;;;;11.25;2.72;;;17.30;99.90;;;;;;5048968;28;20046;-67
2022/08/01 05:20:14;;;;;;;13.10;3.25;;;17.30;99.90;;;;;;5031942;28;20163;-67
2022/08/01 05:22:40;;;;;;;8.40;2.60;;;17.30;99.90;;;;;;5033914;28;20519;-68
2022/08/01 05:25:06;;;;;;;10.90;3.85;;;17.30;99.90;;;;;;5041501;28;20041;-67
2022/08/01 05:27:32;;;;;;;11.63;2.70;;;17.30;99.90;;;;;;5036767;28;20047;-67
2022/08/01 05:29:58;;;;;;;10.82;2.67;;;17.30;99.90;;;;;;5024482;28;20047;-67
2022/08/01 05:32:23;;;;;;;12.48;3.05;;;17.30;99.90;;;;;;5035947;28;20119;-67
2022/08/01 05:34:49;;;;;;;7.25;2.67;;;17.30;99.90;;;;;;5050220;28;20040;-67
2022/08/01 05:37:15;;;;;;;9.32;2.80;;;17.30;99.90;;;;;;5030883;28;20045;-67
2022/08/01 05:39:40;;;;;;;13.35;2.45;;;17.20;99.90;;;;;;5034607;28;20049;-67
2022/08/01 05:42:06;;;;;;;15.23;2.70;;;17.30;99.90;;;;;;5035620;28;20122;-67
2022/08/01 05:44:32;;;;;;;11.27;2.85;;;17.30;99.90;;;;;;5051915;28;20047;-67
2022/08/01 05:46:57;;;;;;;11.63;2.78;;;17.30;99.90;;;;;;5031072;28;20156;-67
2022/08/01 05:49:23;;;;;;;12.05;2.72;;;17.30;99.90;;;;;;5029488;28;20091;-68
2022/08/01 05:51:49;;;;;;;12.27;3.28;;;17.30;99.90;;;;;;5041233;28;20041;-68
2022/08/01 05:54:14;;;;;;;12.68;3.25;;;17.30;99.90;;;;;;5036746;28;20043;-68
2022/08/01 05:56:40;;;;;;;11.45;2.60;;;17.30;99.90;;;;;;5026289;28;20063;-68
2022/08/01 05:59:06;;;;;;;9.27;2.40;;;17.30;99.90;;;;;;5033571;28;20033;-67
2022/08/01 06:01:31;;;;;;;11.93;2.80;;;17.30;99.90;;;;;;5053878;28;20064;-67
2022/08/01 06:03:57;;;;;;;14.70;2.83;;;17.20;99.90;;;;;;5057991;28;20445;-67
2022/08/01 06:06:23;;;;;;;9.27;2.80;;;17.20;99.90;;;;;;5041003;28;20473;-67
2022/08/01 06:08:48;;;;;;;11.35;2.72;;;17.20;99.90;;;;;;5042399;28;20037;-68
2022/08/01 06:11:14;;;;;;;14.40;3.13;;;17.30;99.90;;;;;;5064408;28;20045;-68
2022/08/01 06:13:39;;;;;;;8.18;2.42;;;17.30;99.90;;;;;;5051930;28;20053;-67
2022/08/01 06:16:05;;;;;;;17.17;2.65;;;17.20;99.90;;;;;;5035139;28;20041;-68
2022/08/01 06:18:31;;;;;;;13.10;3.13;;;17.20;99.90;;;;;;5071981;28;20040;-67
2022/08/01 06:20:56;;;;;;;14.00;2.58;;;17.20;99.90;;;;;;5065939;28;20389;-67
2022/08/01 06:23:22;;;;;;;17.83;3.42;;;17.30;99.90;;;;;;5042660;28;20037;-67
2022/08/01 06:25:51;;;;;;;15.07;3.35;;;17.20;99.90;;;;;;5070391;28;20446;-67
2022/08/01 06:28:16;;;;;;;12.70;2.67;;;17.30;99.90;;;;;;5043130;28;20037;-67
2022/08/01 06:30:42;;;;;;;12.68;3.33;;;17.30;99.90;;;;;;5035330;28;20071;-67
2022/08/01 06:33:08;;;;;;;10.65;2.97;;;17.30;99.90;;;;;;5051361;28;20041;-67
2022/08/01 06:35:34;;;;;;;10.95;3.13;;;17.30;99.90;;;;;;5048777;28;20044;-67
2022/08/01 06:37:59;;;;;;;13.48;3.45;;;17.30;99.90;;;;;;5059200;28;20047;-67
2022/08/01 06:40:25;;;;;;;12.07;2.72;;;17.30;99.90;;;;;;5069588;28;20087;-67
2022/08/01 06:42:50;;;;;;;9.85;2.58;;;17.20;99.90;;;;;;5066533;28;20040;-67
2022/08/01 06:45:16;;;;;;;13.63;3.17;;;17.30;99.90;;;;;;5060267;28;20038;-67
2022/08/01 06:47:43;;;;;;;12.90;3.10;;;17.30;99.90;;;;;;5051452;28;20443;-67
2022/08/01 06:50:10;;;;;;;12.57;3.20;;;17.30;99.90;;;;;;5054738;28;20091;-67
2022/08/01 06:52:37;;;;;;;14.60;3.00;;;17.30;99.90;;;;;;5056207;28;20051;-68
2022/08/01 06:55:03;;;;;;;15.02;3.67;;;17.30;99.90;;;;;;5045077;28;20155;-67
2022/08/01 06:57:29;;;;;;;17.13;3.58;;;17.30;99.90;;;;;;5048789;28;20052;-67
2022/08/01 06:59:55;;;;;;;12.10;3.00;;;17.30;99.90;;;;;;5051268;28;20041;-67
2022/08/01 07:02:21;;;;;;;12.15;3.40;;;17.20;99.90;;;;;;5028451;28;20125;-67
2022/08/01 07:04:46;;;;;;;13.05;2.92;;;17.30;99.90;;;;;;5044525;28;20131;-67
2022/08/01 07:07:12;;;;;;;13.18;2.97;;;17.30;99.90;;;;;;5055145;28;20090;-67
2022/08/01 07:09:40;;;;;;;12.45;3.03;;;17.30;99.90;;;;;;5054613;28;20064;-67
2022/08/01 07:12:06;;;;;;;13.75;3.38;;;17.30;99.90;;;;;;5069501;28;20044;-67
2022/08/01 07:14:32;;;;;;;11.73;3.10;;;17.40;99.90;;;;;;5040470;28;20063;-67
2022/08/01 07:16:58;;;;;;;15.75;3.10;;;17.40;99.90;;;;;;5054274;28;20041;-67
2022/08/01 07:19:23;;;;;;;14.30;3.47;;;17.40;99.90;;;;;;5036351;28;20037;-67
2022/08/01 07:21:49;;;;;;;12.32;2.95;;;17.40;99.90;;;;;;5032820;28;20040;-67
2022/08/01 07:24:14;;;;;;;14.93;3.20;;;17.40;99.90;;;;;;5052827;28;20037;-67
2022/08/01 07:26:42;;;;;;;12.55;3.33;;;17.40;99.90;;;;;;5057107;28;20044;-67
2022/08/01 07:29:08;;;;;;;13.68;3.35;;;17.30;99.90;;;;;;5051886;28;20045;-67
2022/08/01 07:31:33;;;;;;;19.73;3.70;;;17.40;99.90;;;;;;5070938;28;20093;-67
2022/08/01 07:33:59;;;;;;;11.25;2.80;;;17.40;99.90;;;;;;5055719;28;20412;-68
2022/08/01 07:36:25;;;;;;;12.48;2.53;;;17.50;99.90;;;;;;5042954;28;20065;-69
2022/08/01 07:38:50;;;;;;;12.85;3.20;;;17.50;99.90;;;;;;5019623;28;20045;-70
2022/08/01 07:41:16;;;;;;;13.40;2.83;;;17.60;99.90;;;;;;5049334;28;20058;-70
2022/08/01 07:43:41;;;;;;;12.38;3.47;;;17.60;99.90;;;;;;5071631;28;20511;-68
2022/08/01 07:46:07;;;;;;;11.48;2.90;;;17.60;99.90;;;;;;5044786;28;20076;-67
2022/08/01 07:48:33;;;;;;;14.35;3.13;;;17.60;99.90;;;;;;5051778;28;20032;-67
2022/08/01 07:50:58;;;;;;;12.93;3.25;;;17.60;99.90;;;;;;5034104;28;20036;-67
2022/08/01 07:53:24;;;;;;;14.15;3.33;;;17.70;99.90;;;;;;5030666;28;20517;-68
2022/08/01 07:55:50;;;;;;;13.40;3.10;;;17.80;99.90;;;;;;5037770;28;20037;-67
2022/08/01 07:58:16;;;;;;;16.83;3.15;;;17.80;99.90;;;;;;5057774;28;20504;-67
2022/08/01 08:00:42;;;;;;;14.52;3.65;;;17.80;99.90;;;;;;5074747;28;20075;-67
2022/08/01 08:03:08;;;;;;;15.38;3.35;;;17.90;99.90;;;;;;5051428;28;20029;-67
2022/08/01 08:05:35;;;;;;;16.13;3.50;;;18.00;99.90;;;;;;5037671;28;20039;-68
2022/08/01 08:08:02;;;;;;;16.08;3.22;;;18.20;99.90;;;;;;5069938;28;20044;-67
2022/08/01 08:10:27;;;;;;;15.77;2.80;;;18.30;99.90;;;;;;5066550;28;20036;-68
2022/08/01 08:12:53;;;;;;;17.10;2.72;;;18.30;99.90;;;;;;5072183;28;20056;-68
2022/08/01 08:15:18;;;;;;;14.73;2.72;;;18.50;99.90;;;;;;5060353;28;20045;-67
2022/08/01 08:17:44;;;;;;;13.75;2.50;;;18.60;99.90;;;;;;5065684;28;20051;-67
2022/08/01 08:20:10;;;;;;;14.15;2.70;;;18.80;99.90;;;;;;5071507;28;20393;-67
2022/08/01 08:22:36;;;;;;;12.07;2.50;;;18.80;99.90;;;;;;5065536;28;20069;-67
2022/08/01 08:25:02;;;;;;;10.98;2.97;;;18.90;99.90;;;;;;5036827;28;20033;-67
2022/08/01 08:27:28;;;;;;;17.17;2.80;;;19.00;99.90;;;;;;5054200;28;20559;-67
2022/08/01 08:29:53;;;;;;;13.55;3.63;;;19.10;99.90;;;;;;5048807;28;20123;-67
2022/08/01 08:32:19;;;;;;;12.07;2.83;;;19.20;99.90;;;;;;5057796;28;20045;-68
2022/08/01 08:34:44;;;;;;;9.55;2.47;;;19.30;99.90;;;;;;5061212;28;20052;-67
2022/08/01 08:37:10;;;;;;;11.10;3.08;;;19.50;99.90;;;;;;5067547;28;20390;-68
2022/08/01 08:39:36;;;;;;;12.18;2.80;;;19.50;99.90;;;;;;5049300;28;20048;-67
2022/08/01 08:42:06;;;;;;;15.60;2.90;;;19.50;99.90;;;;;;5044836;28;20037;-67
2022/08/01 08:44:32;;;;;;;12.80;2.60;;;19.60;99.90;;;;;;5040300;28;20494;-67
2022/08/01 08:47:00;;;;;;;10.13;2.53;;;19.60;99.90;;;;;;5053278;28;20055;-67
2022/08/01 08:49:28;;;;;;;11.32;2.53;;;19.70;99.90;;;;;;5049644;28;20048;-67
2022/08/01 08:51:59;;;;;;;16.80;2.50;;;19.70;99.90;;;;;;5041373;28;20051;-67
2022/08/01 08:54:26;;;;;;;11.30;2.65;;;19.80;99.90;;;;;;5037402;28;20067;-68
2022/08/01 08:56:52;;;;;;;11.40;2.35;;;19.70;99.90;;;;;;5056690;28;20040;-67
2022/08/01 08:59:20;;;;;;;13.32;2.75;;;19.60;99.90;;;;;;5046119;28;20488;-67
2022/08/01 09:01:47;;;;;;;11.50;2.58;;;19.50;99.90;;;;;;5035883;28;20036;-67
2022/08/01 09:04:12;;;;;;;8.80;2.20;;;19.50;99.90;;;;;;5057743;28;20036;-67
2022/08/01 09:06:39;;;;;;;9.85;1.95;;;19.50;99.90;;;;;;5045631;28;20034;-67
2022/08/01 09:09:05;;;;;;;7.78;1.88;;;19.50;99.90;;;;;;5061868;28;20045;-67
2022/08/01 09:11:32;;;;;;;8.57;1.88;;;19.70;99.90;;;;;;5036441;28;20037;-68
2022/08/01 09:14:08;;;;;;;10.00;2.05;;;19.80;99.90;;;;;;5052465;28;20057;-67
2022/08/01 09:16:35;;;;;;;11.82;2.47;;;19.90;99.90;;;;;;5034000;28;20045;-67
2022/08/01 09:19:09;;;;;;;7.78;2.10;;;20.00;99.90;;;;;;5058410;28;20053;-67
2022/08/01 09:21:35;;;;;;;11.43;2.15;;;20.00;99.90;;;;;;5046431;28;20067;-67
2022/08/01 09:24:05;;;;;;;7.85;2.30;;;19.90;99.90;;;;;;5048697;28;20072;-67
2022/08/01 09:26:35;;;;;;;10.35;2.40;;;19.90;99.90;;;;;;5038403;28;20045;-68
2022/08/01 09:29:06;;;;;;;11.57;2.20;;;19.80;99.90;;;;;;5036393;28;20047;-68
2022/08/01 09:31:43;;;;;;;9.35;2.58;;;19.90;99.90;;;;;;5061300;28;20090;-68
2022/08/01 09:34:09;;;;;;;10.60;2.20;;;20.00;99.90;;;;;;5042413;28;20460;-67
2022/08/01 09:36:55;;;;;;;8.80;2.45;;;20.00;99.90;;;;;;5066375;28;20482;-67
2022/08/01 09:39:29;;;;;;;7.85;1.70;;;20.20;99.90;;;;;;5053428;28;20037;-68
2022/08/01 09:41:59;;;;;;;9.35;1.75;;;20.20;99.90;;;;;;5035875;28;20443;-67
2022/08/01 09:44:42;;;;;;;9.52;1.77;;;20.20;99.90;;;;;;5052785;28;20047;-67
2022/08/01 09:47:07;;;;;;;10.43;2.25;;;20.20;99.90;;;;;;5035679;28;20037;-68
2022/08/01 09:49:35;;;;;;;10.85;1.83;;;20.40;99.90;;;;;;5049374;28;20033;-67
2022/08/01 09:52:11;;;;;;;7.72;1.90;;;20.30;99.90;;;;;;5032394;28;20076;-67
2022/08/01 09:54:37;;;;;;;10.45;1.92;;;20.40;99.90;;;;;;5051428;28;20048;-67
2022/08/01 09:57:14;;;;;;;7.68;1.98;;;20.20;99.90;;;;;;5037953;28;20048;-68
2022/08/01 09:59:43;;;;;;;12.20;2.35;;;20.10;99.90;;;;;;5072214;28;20049;-68
2022/08/01 10:02:12;;;;;;;9.60;2.00;;;20.20;99.90;;;;;;5059065;28;20044;-68
2022/08/01 10:04:46;;;;;;;12.05;1.90;;;20.40;99.90;;;;;;5044380;28;20550;-67
2022/08/01 10:07:15;;;;;;;10.90;2.20;;;20.40;99.90;;;;;;5021373;28;20045;-68
2022/08/01 10:09:41;;;;;;;10.25;2.33;;;20.30;99.90;;;;;;5041285;28;20051;-67
2022/08/01 10:12:10;;;;;;;8.63;1.98;;;20.30;99.90;;;;;;5068456;28;20040;-68
2022/08/01 10:14:38;;;;;;;8.15;1.73;;;20.20;99.90;;;;;;5058200;28;20060;-68
2022/08/01 10:17:06;;;;;;;6.07;1.67;;;20.10;99.90;;;;;;5053887;28;20055;-68
2022/08/01 10:19:32;;;;;;;9.32;2.30;;;20.10;99.90;;;;;;5055429;28;20386;-67
2022/08/01 10:21:58;;;;;;;9.13;2.00;;;20.10;99.90;;;;;;5085834;28;20120;-67
2022/08/01 10:24:26;;;;;;;9.93;1.77;;;20.20;99.90;;;;;;5066375;28;20040;-67
2022/08/01 10:26:55;;;;;;;9.52;1.70;;;20.40;99.90;;;;;;5032399;28;20041;-67
2022/08/01 10:29:22;;;;;;;10.07;1.73;;;20.40;99.90;;;;;;5019102;28;20490;-68
2022/08/01 10:31:49;;;;;;;9.43;1.70;;;20.30;99.90;;;;;;5064114;28;20520;-70
2022/08/01 10:34:18;;;;;;;8.43;1.67;;;20.30;99.90;;;;;;5050343;28;20051;-70
2022/08/01 10:36:45;;;;;;;6.70;1.80;;;20.40;99.90;;;;;;5039947;28;20041;-70
2022/08/01 10:39:11;;;;;;;9.25;1.95;;;20.40;99.90;;;;;;5057512;28;20498;-71
2022/08/01 10:41:38;;;;;;;7.18;1.42;;;20.50;99.90;;;;;;5035291;28;20062;-70
2022/08/01 10:44:06;;;;;;;6.75;1.38;;;20.50;99.90;;;;;;5040631;28;20122;-72
2022/08/01 10:46:37;;;;;;;12.07;1.67;;;20.50;99.90;;;;;;5033188;28;20093;-70
2022/08/01 10:49:12;;;;;;;8.40;2.00;;;20.50;99.90;;;;;;5050999;28;20033;-70
2022/08/01 10:51:40;;;;;;;6.53;1.60;;;20.50;99.90;;;;;;5042503;28;20293;-70
2022/08/01 10:54:07;;;;;;;9.35;1.42;;;20.50;99.90;;;;;;5037404;28;20051;-70
2022/08/01 10:56:45;;;;;;;7.72;1.80;;;20.40;99.90;;;;;;5048894;28;20056;-70
2022/08/01 10:59:21;;;;;;;6.38;1.50;;;20.40;99.90;;;;;;5022247;28;20045;-71
2022/08/01 11:01:59;;;;;;;11.40;2.47;;;20.50;99.90;;;;;;5034537;28;20041;-69
2022/08/01 11:04:45;;;;;;;8.75;1.40;;;20.60;99.90;;;;;;5047840;28;20167;-68
2022/08/01 11:07:21;;;;;;;8.95;1.92;;;20.50;99.90;;;;;;5068938;28;20064;-69
2022/08/01 11:10:00;;;;;;;7.45;1.65;;;20.40;99.90;;;;;;5025694;28;20044;-68
2022/08/01 11:12:39;;;;;;;7.47;1.60;;;20.50;99.90;;;;;;5054598;28;20497;-68
2022/08/01 11:15:07;;;;;;;9.25;1.83;;;20.50;99.90;;;;;;5049369;28;20045;-68
2022/08/01 11:17:51;;;;;;;11.23;2.38;;;20.60;99.90;;;;;;5056786;28;20104;-68
2022/08/01 11:20:30;;;;;;;7.53;1.63;;;20.70;99.90;;;;;;5027001;28;20032;-69
2022/08/01 11:22:58;;;;;;;10.35;1.90;;;20.80;99.90;;;;;;5069977;28;20049;-69
2022/08/01 11:25:47;;;;;;;8.30;1.60;;;20.70;99.90;;;;;;5049844;28;20047;-69
2022/08/01 11:28:15;;;;;;;7.78;1.60;;;20.70;99.90;;;;;;5059555;28;20036;-68
2022/08/01 11:30:52;;;;;;;7.50;1.75;;;20.50;99.90;;;;;;5073721;28;20044;-69
2022/08/01 11:33:38;;;;;;;7.43;1.35;;;20.40;99.90;;;;;;5037246;28;20087;-69
2022/08/01 11:36:10;;;;;;;4.63;1.30;;;20.30;99.90;;;;;;5070983;28;20071;-68
2022/08/01 11:38:36;;;;;;;7.03;1.65;;;20.40;99.90;;;;;;5045160;28;20041;-69
2022/08/01 11:41:23;;;;;;;11.23;2.10;;;20.20;99.90;;;;;;5075480;28;20058;-69
2022/08/01 11:44:07;;;;;;;9.70;2.08;;;20.10;99.90;;;;;;5055818;28;20037;-68
2022/08/01 11:47:04;;;;;;;7.22;1.60;;;20.00;99.90;;;;;;5069210;28;20048;-68
2022/08/01 11:49:33;;;;;;;7.53;1.88;;;20.10;99.90;;;;;;5034639;28;20044;-69
2022/08/01 11:52:15;;;;;;;6.63;1.60;;;20.20;99.90;;;;;;5039662;28;20116;-69
2022/08/01 11:54:40;;;;;;;8.75;1.77;;;20.20;99.90;;;;;;5073873;28;20060;-69
2022/08/01 11:57:19;;;;;;;10.63;2.88;;;20.30;99.90;;;;;;5037120;28;20049;-69
2022/08/01 11:59:48;;;;;;;6.93;1.63;;;20.50;99.90;;;;;;5068455;28;20037;-68
2022/08/01 12:02:33;;;;;;;7.97;1.40;;;20.30;99.90;;;;;;5054428;28;20385;-69
2022/08/01 12:05:11;;;;;;;7.75;1.40;;;20.30;99.90;;;;;;5056656;28;20581;-69
2022/08/01 12:07:38;;;;;;;8.13;1.90;;;20.30;99.90;;;;;;5054354;28;20041;-68
2022/08/01 12:10:08;;;;;;;7.68;1.42;;;20.40;99.90;;;;;;5019509;28;20045;-69
2022/08/01 12:12:35;;;;;;;6.78;1.45;;;20.40;99.90;;;;;;5041574;28;20041;-69
2022/08/01 12:15:08;;;;;;;8.02;1.52;;;20.40;99.90;;;;;;5045794;28;20131;-68
2022/08/01 12:17:46;;;;;;;6.00;2.08;;;20.30;99.90;;;;;;5051272;28;20043;-69
2022/08/01 12:20:14;;;;;;;5.63;1.30;;;20.30;99.90;;;;;;5072201;28;20052;-69
2022/08/01 12:22:41;;;;;;;5.95;1.23;;;20.50;99.90;;;;;;5056112;28;20044;-69
2022/08/01 12:25:08;;;;;;;5.07;1.42;;;20.60;99.90;;;;;;5058215;28;20386;-69
2022/08/01 12:27:35;;;;;;;8.43;1.67;;;20.60;99.90;;;;;;5071276;28;20434;-69
2022/08/01 12:30:01;;;;;;;8.15;1.83;;;20.50;99.90;;;;;;5060395;28;20076;-69
2022/08/01 12:32:36;;;;;;;7.68;1.45;;;20.40;99.90;;;;;;5059207;28;20133;-69
2022/08/01 12:35:10;;;;;;;6.57;1.60;;;20.50;99.90;;;;;;5025543;28;20044;-69
2022/08/01 12:37:44;;;;;;;8.75;1.63;;;20.50;99.90;;;;;;5033099;28;20045;-73
2022/08/01 12:40:17;;;;;;;9.38;1.73;;;20.50;99.90;;;;;;5047666;28;20406;-71
2022/08/01 12:42:45;;;;;;;10.15;1.50;;;20.60;99.90;;;;;;5033149;28;20536;-71
2022/08/01 12:45:13;;;;;;;8.93;1.50;;;20.70;99.90;;;;;;5055478;28;20496;-71
2022/08/01 12:47:40;;;;;;;8.75;1.52;;;20.70;99.90;;;;;;5057974;28;20124;-71
2022/08/01 12:50:17;;;;;;;9.68;1.60;;;20.60;99.90;;;;;;5035730;28;21202;-71
2022/08/01 12:52:43;;;;;;;9.93;1.90;;;20.60;99.90;;;;;;5082335;28;20044;-71